Time;durP1;ratioP1;P1;durP2;ratioP2;P2;SDS_P1;SDS_P2;PMS_P1;PMS_P2;Temp;Humidity;BMP_temperature;BMP_pressure;BME280_temperature;BME280_humidity;BME280_pressure;Samples;Min_cycle;Max_cycle;Signal;HPM_P1;HPM_P2
2023/08/29 00:02:11;;;;;;;3.00;2.90;;;17.70;99.90;;;17.96;83.35;101198.91;5043256;28;20477;-72
2023/08/29 00:04:40;;;;;;;;;;;17.60;99.90;;;17.83;83.84;101202.81;5045047;28;20076;-71
2023/08/29 00:07:08;;;;;;;3.30;3.20;;;17.40;99.90;;;17.74;84.09;101198.63;5045385;28;20336;-72
2023/08/29 00:09:36;;;;;;;2.78;2.67;;;17.30;99.90;;;17.54;85.67;101210.78;5045434;28;20033;-72
2023/08/29 00:12:07;;;;;;;3.20;3.10;;;17.10;99.90;;;17.34;87.01;101179.22;5044700;28;20144;-70
2023/08/29 00:14:35;;;;;;;;;;;16.90;99.90;;;17.46;87.87;101194.06;5046849;28;20060;-71
2023/08/29 00:17:04;;;;;;;3.22;3.13;;;16.90;99.90;;;17.54;87.43;101192.94;5043169;28;20290;-72
2023/08/29 00:19:32;;;;;;;3.22;3.13;;;17.10;99.90;;;17.53;87.22;101185.84;5035150;28;20045;-71
2023/08/29 00:22:00;;;;;;;3.05;2.95;;;17.10;99.90;;;17.60;87.34;101183.88;5043344;28;20103;-72
2023/08/29 00:24:29;;;;;;;3.00;2.90;;;17.20;99.90;;;17.61;87.38;101181.19;5046200;28;20049;-71
2023/08/29 00:26:58;;;;;;;3.25;3.15;;;17.20;99.90;;;17.60;87.32;101178.53;5043882;28;20049;-71
2023/08/29 00:29:28;;;;;;;3.78;3.58;;;17.20;99.90;;;17.64;87.18;101170.38;5045365;28;20506;-70
2023/08/29 00:31:56;;;;;;;2.60;2.50;;;17.20;99.90;;;17.63;87.30;101178.44;5045506;28;20518;-71
2023/08/29 00:34:24;;;;;;;2.95;2.85;;;17.20;99.90;;;17.61;87.27;101174.94;5051244;28;20383;-72
2023/08/29 00:36:53;;;;;;;3.25;3.15;;;17.20;99.90;;;17.58;87.71;101175.91;5045718;28;20099;-72
2023/08/29 00:39:21;;;;;;;2.90;2.80;;;17.20;99.90;;;17.57;87.80;101173.28;5043379;28;20780;-72
2023/08/29 00:41:51;;;;;;;3.65;3.47;;;17.20;99.90;;;17.55;88.40;101175.09;5045595;28;20067;-71
2023/08/29 00:44:19;;;;;;;2.72;2.63;;;17.20;99.90;;;17.61;88.27;101178.50;5040771;28;20045;-70
2023/08/29 00:46:49;;;;;;;2.95;2.85;;;17.20;99.90;;;17.68;88.00;101172.03;5045414;28;20128;-70
2023/08/29 00:49:22;;;;;;;3.33;3.22;;;17.30;99.90;;;17.71;87.70;101171.09;5042293;28;20056;-70
2023/08/29 00:51:51;;;;;;;5.40;5.05;;;17.30;99.90;;;17.72;87.32;101171.03;5050941;28;20053;-72
2023/08/29 00:54:21;;;;;;;2.80;2.70;;;17.30;99.90;;;17.77;86.73;101177.13;5043423;28;20080;-71
2023/08/29 00:56:50;;;;;;;3.25;3.15;;;17.40;99.90;;;17.81;86.26;101170.75;5043175;28;20091;-71
2023/08/29 00:59:18;;;;;;;3.40;3.28;;;17.50;99.90;;;17.81;85.77;101172.53;5045859;28;20131;-71
2023/08/29 01:01:49;;;;;;;3.00;2.90;;;17.50;99.90;;;17.83;85.35;101174.28;5057483;28;20045;-71
2023/08/29 01:04:19;;;;;;;3.22;3.13;;;17.50;99.90;;;17.82;85.15;101179.69;5034653;28;20124;-72
2023/08/29 01:06:48;;;;;;;3.00;2.90;;;17.50;99.90;;;17.82;85.03;101174.31;5034052;28;20046;-72
2023/08/29 01:09:17;;;;;;;2.83;2.72;;;17.50;99.90;;;17.77;85.05;101177.13;5034081;28;20091;-71
2023/08/29 01:11:56;;;;;;;2.80;2.70;;;17.40;99.90;;;17.70;85.41;101177.34;5036221;28;20128;-71
2023/08/29 01:14:42;;;;;;;3.00;2.90;;;17.30;99.90;;;17.72;85.60;101170.16;5049500;28;20092;-69
2023/08/29 01:17:17;;;;;;;2.60;2.50;;;17.30;99.90;;;17.74;85.73;101169.19;5044929;28;21159;-71
2023/08/29 01:19:52;;;;;;;2.95;2.85;;;17.40;99.90;;;17.71;85.99;101158.56;5041724;28;20057;-71
2023/08/29 01:22:30;;;;;;;2.95;2.85;;;17.30;99.90;;;17.66;85.88;101160.50;5044736;28;20136;-72
2023/08/29 01:25:07;;;;;;;3.17;3.08;;;17.30;99.90;;;17.64;85.42;101161.47;5043716;28;20056;-71
2023/08/29 01:27:38;;;;;;;2.90;2.80;;;17.20;99.90;;;17.57;85.11;101160.78;5032488;28;20061;-70
2023/08/29 01:30:09;;;;;;;3.05;2.95;;;17.20;99.90;;;17.52;84.99;101164.47;5033721;28;20056;-71
2023/08/29 01:32:38;;;;;;;2.80;2.70;;;17.10;99.90;;;17.53;84.92;101156.44;5033874;28;20148;-71
2023/08/29 01:35:09;;;;;;;3.47;3.38;;;17.10;99.90;;;17.56;85.11;101159.00;5037640;28;20091;-71
2023/08/29 01:37:38;;;;;;;3.13;3.03;;;17.10;99.90;;;17.57;85.40;101165.25;5044905;28;20048;-71
2023/08/29 01:40:08;;;;;;;3.45;3.35;;;17.20;99.90;;;17.50;85.16;101161.84;5040697;28;20126;-71
2023/08/29 01:42:37;;;;;;;3.10;3.00;;;17.10;99.90;;;17.50;85.54;101156.50;5033105;28;20052;-71
2023/08/29 01:45:07;;;;;;;2.70;2.60;;;17.10;99.90;;;17.51;85.67;101152.03;5033166;28;20049;-71
2023/08/29 01:47:36;;;;;;;3.13;3.03;;;17.10;99.90;;;17.55;86.09;101161.72;5033141;28;20566;-71
2023/08/29 01:50:07;;;;;;;2.90;2.80;;;17.10;99.90;;;17.48;86.15;101173.50;5034600;28;20515;-69
2023/08/29 01:52:36;;;;;;;3.10;3.00;;;17.10;99.90;;;17.41;86.09;101166.53;5049186;28;20149;-71
2023/08/29 01:55:06;;;;;;;3.15;3.05;;;17.00;99.90;;;17.32;86.94;101167.69;5051606;28;20520;-71
2023/08/29 01:57:37;;;;;;;2.80;2.70;;;16.90;99.90;;;17.27;88.52;101166.91;5041513;28;20783;-71
2023/08/29 02:00:08;;;;;;;3.22;3.13;;;16.80;99.90;;;17.34;88.50;101162.31;5041186;28;20060;-70
2023/08/29 02:02:43;;;;;;;3.00;2.90;;;16.90;99.90;;;17.46;88.75;101160.16;5043409;28;20048;-71
2023/08/29 02:05:11;;;;;;;2.88;2.78;;;17.00;99.90;;;17.52;88.68;101160.00;5042895;28;20559;-71
2023/08/29 02:07:39;;;;;;;3.58;3.45;;;17.10;99.90;;;17.50;87.79;101158.31;5040970;28;20083;-71
2023/08/29 02:10:10;;;;;;;3.00;2.90;;;17.10;99.90;;;17.54;87.80;101157.28;5042577;28;20072;-71
2023/08/29 02:12:40;;;;;;;3.00;2.90;;;17.10;99.90;;;17.59;88.76;101164.28;5041398;28;20045;-70
2023/08/29 02:15:11;;;;;;;3.23;3.13;;;17.20;99.90;;;17.65;88.82;101160.56;5033020;28;20092;-70
2023/08/29 02:17:39;;;;;;;3.00;2.90;;;17.20;99.90;;;17.65;88.24;101160.56;5032954;28;20407;-70
2023/08/29 02:20:10;;;;;;;3.22;3.13;;;17.20;99.90;;;17.65;87.63;101163.22;5048111;28;20053;-71
2023/08/29 02:22:38;;;;;;;3.17;3.08;;;17.20;99.90;;;17.58;86.97;101159.84;5038160;28;20046;-70
2023/08/29 02:25:08;;;;;;;3.35;3.25;;;17.20;99.90;;;17.56;86.78;101161.69;5042919;28;20491;-71
2023/08/29 02:27:36;;;;;;;3.13;3.03;;;17.10;99.90;;;17.64;87.56;101166.81;5041616;28;20053;-71
2023/08/29 02:30:08;;;;;;;3.05;2.95;;;17.20;99.90;;;17.64;88.14;101158.78;5043954;28;20037;-71
2023/08/29 02:32:38;;;;;;;2.78;2.67;;;17.20;99.90;;;17.70;88.78;101155.94;5031408;28;20053;-70
2023/08/29 02:35:08;;;;;;;3.47;3.38;;;17.30;99.90;;;17.71;88.38;101160.38;5032962;28;20045;-71
2023/08/29 02:37:36;;;;;;;2.80;2.70;;;17.30;99.90;;;17.71;88.48;101161.22;5031539;28;20061;-70
2023/08/29 02:40:08;;;;;;;3.50;3.40;;;17.30;99.90;;;17.80;88.65;101160.09;5034351;28;20497;-70
2023/08/29 02:42:36;;;;;;;2.90;2.80;;;17.40;99.90;;;17.73;89.30;101161.22;5048794;28;20072;-71
2023/08/29 02:45:07;;;;;;;3.05;2.95;;;17.30;99.90;;;17.75;89.43;101162.91;5038590;28;20053;-70
2023/08/29 02:47:36;;;;;;;3.00;2.90;;;17.40;99.90;;;17.87;88.69;101172.38;5043345;28;20040;-72
2023/08/29 02:50:05;;;;;;;3.40;3.30;;;17.50;99.90;;;17.89;88.25;101163.38;5040033;28;20064;-71
2023/08/29 02:52:34;;;;;;;3.38;3.28;;;17.50;99.90;;;17.91;88.01;101168.69;5031961;28;20053;-71
2023/08/29 02:55:02;;;;;;;3.00;2.90;;;17.50;99.90;;;17.93;87.89;101172.19;5032110;28;20564;-71
2023/08/29 02:57:30;;;;;;;3.10;3.00;;;17.50;99.90;;;18.00;87.57;101180.00;5038886;28;20111;-70
2023/08/29 02:59:58;;;;;;;3.05;2.95;;;17.60;99.90;;;17.92;86.77;101171.31;5036114;28;20041;-71
2023/08/29 03:02:28;;;;;;;2.70;2.60;;;17.60;99.90;;;17.88;86.44;101174.16;5042258;28;20048;-71
2023/08/29 03:04:58;;;;;;;2.78;2.67;;;17.50;99.90;;;17.96;86.97;101170.28;5042014;28;20049;-71
2023/08/29 03:07:27;;;;;;;3.05;2.95;;;17.60;99.90;;;17.83;87.12;101150.19;5042945;28;20507;-68
2023/08/29 03:09:56;;;;;;;2.97;2.88;;;17.60;99.90;;;17.96;86.88;101174.81;5039546;28;20053;-71
2023/08/29 03:12:24;;;;;;;2.80;2.70;;;17.60;99.90;;;17.90;86.36;101177.66;5054189;28;20049;-71
2023/08/29 03:14:55;;;;;;;2.97;2.88;;;17.50;99.90;;;17.92;85.92;101186.53;5035260;28;20042;-71
2023/08/29 03:17:25;;;;;;;3.17;3.08;;;17.50;99.90;;;17.85;85.75;101191.16;5043106;28;20080;-70
2023/08/29 03:19:55;;;;;;;2.90;2.80;;;17.50;99.90;;;17.84;85.72;101183.19;5046834;28;20136;-71
2023/08/29 03:22:23;;;;;;;2.70;2.60;;;17.50;99.90;;;17.87;85.37;101181.28;5045940;28;20486;-70
2023/08/29 03:24:51;;;;;;;3.15;3.05;;;17.50;99.90;;;17.79;85.57;101175.28;5046457;28;20116;-72
2023/08/29 03:27:20;;;;;;;3.55;3.45;;;17.50;99.90;;;17.75;86.23;101172.75;5044957;28;20061;-71
2023/08/29 03:29:48;;;;;;;2.83;2.72;;;17.40;99.90;;;17.78;86.70;101180.69;5047291;28;20053;-70
2023/08/29 03:32:17;;;;;;;3.10;3.00;;;17.40;99.90;;;17.76;87.28;101177.16;5051359;28;20130;-71
2023/08/29 03:34:45;;;;;;;3.00;2.90;;;17.40;99.90;;;17.81;87.43;101172.53;5043974;28;20045;-71
2023/08/29 03:37:17;;;;;;;2.78;2.67;;;17.40;99.90;;;17.74;86.89;101170.97;5034623;28;20055;-72
2023/08/29 03:39:45;;;;;;;3.53;3.42;;;17.30;99.90;;;17.77;86.77;101160.19;5042796;28;20134;-71
2023/08/29 03:42:13;;;;;;;3.00;2.90;;;17.40;99.90;;;17.77;86.55;101163.75;5044022;28;20045;-71
2023/08/29 03:44:41;;;;;;;3.00;2.90;;;17.40;99.90;;;17.76;86.73;101163.78;5044709;28;20064;-71
2023/08/29 03:47:10;;;;;;;3.13;3.03;;;17.40;99.90;;;17.59;86.46;101168.75;5045925;28;20057;-71
2023/08/29 03:49:38;;;;;;;2.90;2.80;;;17.20;99.90;;;17.45;86.80;101173.56;5044337;28;20040;-71
2023/08/29 03:52:07;;;;;;;3.55;3.45;;;17.00;99.90;;;17.38;86.75;101172.84;5045680;28;20502;-71
2023/08/29 03:54:36;;;;;;;3.40;3.30;;;17.00;99.90;;;17.09;87.43;101176.31;5050318;28;20057;-69
2023/08/29 03:57:06;;;;;;;3.43;3.33;;;16.70;99.90;;;16.83;88.28;101168.09;5041927;28;20049;-71
2023/08/29 03:59:35;;;;;;;2.90;2.80;;;16.60;99.90;;;16.77;90.05;101167.34;5045904;28;20095;-71
2023/08/29 04:02:06;;;;;;;3.30;3.20;;;16.50;99.90;;;16.89;90.47;101164.38;5043886;28;20468;-71
2023/08/29 04:04:35;;;;;;;3.00;2.90;;;16.50;99.90;;;16.92;90.57;101174.97;5045763;28;20045;-71
2023/08/29 04:07:04;;;;;;;3.07;2.97;;;16.50;99.90;;;16.96;90.99;101168.66;5045967;28;20049;-71
2023/08/29 04:09:33;;;;;;;3.17;3.08;;;16.60;99.90;;;17.07;91.09;101172.78;5051232;28;20633;-70
2023/08/29 04:12:03;;;;;;;3.17;3.08;;;16.70;99.90;;;17.10;91.08;101172.72;5046215;28;20157;-71
2023/08/29 04:14:31;;;;;;;3.15;3.05;;;16.80;99.90;;;17.28;90.88;101168.69;5043338;28;20451;-72
2023/08/29 04:17:00;;;;;;;3.05;2.95;;;16.90;99.90;;;17.38;90.27;101163.97;5045748;28;20041;-71
2023/08/29 04:19:28;;;;;;;3.00;2.90;;;17.00;99.90;;;17.41;90.23;101150.50;5043322;28;20495;-71
2023/08/29 04:21:57;;;;;;;3.00;2.90;;;17.00;99.90;;;17.48;90.09;101146.75;5044758;28;20099;-71
2023/08/29 04:24:25;;;;;;;3.08;2.97;;;17.10;99.90;;;17.51;89.67;101146.69;5044064;28;20046;-70
2023/08/29 04:26:53;;;;;;;3.30;3.20;;;17.10;99.90;;;17.54;89.37;101146.59;5045237;28;20411;-70
2023/08/29 04:29:23;;;;;;;3.10;3.00;;;17.20;99.90;;;17.63;89.00;101141.00;5044202;28;20581;-70
2023/08/29 04:31:52;;;;;;;3.25;3.15;;;17.20;99.90;;;17.66;88.92;101144.44;5051355;28;20048;-71
2023/08/29 04:34:23;;;;;;;2.60;2.50;;;17.30;99.90;;;17.63;88.54;101144.56;5045696;28;20053;-70
2023/08/29 04:36:52;;;;;;;3.10;3.00;;;17.20;99.90;;;17.46;88.16;101143.25;5050219;28;20072;-70
2023/08/29 04:39:21;;;;;;;2.95;2.85;;;17.10;99.90;;;17.34;88.59;101135.56;5042739;28;20099;-70
2023/08/29 04:41:51;;;;;;;3.10;3.00;;;16.90;99.90;;;17.08;88.63;101129.13;5041597;28;20053;-69
2023/08/29 04:44:19;;;;;;;3.17;3.08;;;16.70;99.90;;;17.04;90.06;101130.13;5045373;28;20052;-70
2023/08/29 04:46:49;;;;;;;3.33;3.22;;;16.60;99.90;;;17.20;90.42;101135.03;5042814;28;20073;-71
2023/08/29 04:49:17;;;;;;;3.00;2.90;;;16.70;99.90;;;17.28;90.27;101136.59;5044661;28;20052;-71
2023/08/29 04:51:46;;;;;;;3.25;3.15;;;16.80;99.90;;;17.37;90.31;101132.78;5043064;28;20041;-70
2023/08/29 04:54:14;;;;;;;3.35;3.25;;;16.90;99.90;;;17.48;89.95;101136.06;5049806;28;20569;-70
2023/08/29 04:56:43;;;;;;;3.17;3.08;;;17.10;99.90;;;17.53;89.69;101127.00;5043460;28;20130;-70
2023/08/29 04:59:12;;;;;;;2.90;2.80;;;17.10;99.90;;;17.55;89.73;101137.66;5041108;28;20041;-70
2023/08/29 05:01:41;;;;;;;3.20;3.10;;;17.20;99.90;;;17.58;89.43;101135.75;5049370;28;20054;-70
2023/08/29 05:04:12;;;;;;;2.97;2.88;;;17.20;99.90;;;17.61;89.28;101130.34;5044926;28;20045;-71
2023/08/29 05:06:40;;;;;;;2.90;2.80;;;17.20;99.90;;;17.64;88.99;101134.69;5050524;28;20144;-71
2023/08/29 05:09:09;;;;;;;3.13;3.03;;;17.30;99.90;;;17.72;88.90;101136.25;5044687;28;20056;-71
2023/08/29 05:11:38;;;;;;;2.97;2.88;;;17.30;99.90;;;17.72;89.38;101136.25;5051472;28;20079;-69
2023/08/29 05:14:06;;;;;;;3.20;3.10;;;17.30;99.90;;;17.81;89.66;101129.72;5050277;28;20055;-71
2023/08/29 05:16:34;;;;;;;3.78;3.60;;;17.40;99.90;;;17.77;89.14;101130.75;5044652;28;20100;-70
2023/08/29 05:19:04;;;;;;;2.92;2.83;;;17.40;99.90;;;17.63;88.79;101114.25;5041635;28;20063;-70
2023/08/29 05:21:34;;;;;;;3.42;3.33;;;17.20;99.90;;;17.73;89.09;101127.28;5052461;28;20048;-70
2023/08/29 05:24:04;;;;;;;2.97;2.87;;;17.30;99.90;;;17.73;89.07;101123.75;5033990;28;20425;-69
2023/08/29 05:26:32;;;;;;;3.33;3.22;;;17.40;99.90;;;17.84;89.27;101135.91;5033619;28;20300;-71
2023/08/29 05:29:00;;;;;;;2.90;2.80;;;17.40;99.90;;;17.99;88.91;101134.53;5033853;28;20103;-71
2023/08/29 05:31:29;;;;;;;3.63;3.53;;;17.60;99.90;;;18.19;88.33;101124.09;5034686;28;20047;-70
2023/08/29 05:33:57;;;;;;;2.80;2.70;;;17.80;99.90;;;18.31;87.62;101126.38;5042889;28;20110;-71
2023/08/29 05:36:26;;;;;;;2.92;2.83;;;18.00;99.90;;;18.39;86.63;101120.78;5042748;28;20084;-71
2023/08/29 05:38:55;;;;;;;2.97;2.88;;;18.10;99.90;;;18.48;85.94;101128.56;5042855;28;20409;-70
2023/08/29 05:41:24;;;;;;;3.03;2.93;;;18.10;99.90;;;18.47;85.51;101129.47;5044613;28;20554;-70
2023/08/29 05:43:52;;;;;;;3.10;3.00;;;18.20;99.90;;;18.44;85.60;101125.09;5041851;28;20079;-71
2023/08/29 05:46:20;;;;;;;3.10;3.00;;;18.10;99.90;;;18.47;85.78;101121.44;5045205;28;20128;-72
2023/08/29 05:48:49;;;;;;;2.63;2.53;;;18.10;99.90;;;18.54;85.08;101123.84;5033272;28;20041;-70
2023/08/29 05:51:17;;;;;;;3.22;3.13;;;18.20;99.90;;;18.60;85.01;101123.66;5033188;28;20049;-71
2023/08/29 05:53:45;;;;;;;2.88;2.78;;;18.20;99.90;;;18.53;85.89;101119.44;5033275;28;20136;-70
2023/08/29 05:56:15;;;;;;;2.78;2.67;;;18.20;99.90;;;18.54;85.98;101129.22;5033744;28;20048;-71
2023/08/29 05:58:43;;;;;;;2.80;2.70;;;18.20;99.90;;;18.56;85.92;101131.88;5042543;28;20124;-71
2023/08/29 06:01:12;;;;;;;2.97;2.88;;;18.20;99.90;;;18.63;85.44;101133.41;5042573;28;20049;-71
2023/08/29 06:03:41;;;;;;;2.72;2.63;;;18.30;99.90;;;18.66;85.51;101119.91;5042007;28;20044;-70
2023/08/29 06:06:09;;;;;;;2.60;2.50;;;18.30;99.90;;;18.70;85.16;101116.19;5043994;28;20116;-70
2023/08/29 06:08:40;;;;;;;3.22;3.13;;;18.30;99.90;;;18.77;85.23;101124.00;5041458;28;20041;-70
2023/08/29 06:11:09;;;;;;;2.70;2.60;;;18.40;99.90;;;18.78;85.03;101125.72;5033077;28;20076;-69
2023/08/29 06:13:38;;;;;;;2.80;2.70;;;18.50;99.90;;;18.71;84.94;101112.59;5032088;28;20037;-69
2023/08/29 06:16:07;;;;;;;3.00;2.90;;;18.50;99.90;;;18.59;85.36;101129.97;5032470;28;20136;-69
2023/08/29 06:18:35;;;;;;;3.05;2.95;;;18.30;99.90;;;18.26;86.49;101128.31;5033694;28;20048;-71
2023/08/29 06:21:05;;;;;;;2.83;2.72;;;17.90;99.90;;;18.20;88.36;101127.63;5042555;28;20045;-70
2023/08/29 06:23:34;;;;;;;2.90;2.80;;;17.80;99.90;;;18.11;88.54;101123.47;5042911;28;20038;-71
2023/08/29 06:26:03;;;;;;;3.72;3.53;;;17.70;99.90;;;18.00;89.33;101115.75;5041857;28;20103;-69
2023/08/29 06:28:33;;;;;;;3.45;3.35;;;17.50;99.90;;;18.09;89.89;101109.25;5043468;28;20064;-69
2023/08/29 06:31:07;;;;;;;3.08;2.97;;;17.60;99.90;;;18.31;89.96;101112.13;5040543;28;20045;-72
2023/08/29 06:33:36;;;;;;;2.95;2.85;;;17.90;99.90;;;18.59;90.41;101110.31;5032639;28;20120;-73
2023/08/29 06:36:05;;;;;;;2.90;2.80;;;18.10;99.90;;;18.72;89.90;101117.88;5032315;28;20069;-73
2023/08/29 06:38:34;;;;;;;3.10;3.00;;;18.30;99.90;;;18.88;89.25;101118.25;5032381;28;20060;-74
2023/08/29 06:41:04;;;;;;;3.42;3.33;;;18.50;99.90;;;19.17;89.00;101110.06;5034993;28;20724;-72
2023/08/29 06:43:33;;;;;;;2.80;2.70;;;18.80;99.90;;;19.39;87.43;101115.56;5041023;28;20056;-69
2023/08/29 06:46:01;;;;;;;3.03;2.92;;;19.00;99.90;;;19.48;86.65;101116.09;5043728;28;20067;-73
2023/08/29 06:48:31;;;;;;;3.03;2.92;;;19.10;99.90;;;19.66;86.82;101109.16;5040569;28;20458;-74
2023/08/29 06:50:59;;;;;;;2.97;2.88;;;19.30;99.90;;;19.90;85.72;101110.91;5041069;28;20083;-71
2023/08/29 06:53:27;;;;;;;2.67;2.58;;;19.50;99.90;;;20.11;85.57;101111.88;5044002;28;20040;-70
2023/08/29 06:55:56;;;;;;;3.38;3.28;;;19.70;99.90;;;20.38;84.38;101119.72;5040855;28;20046;-70
2023/08/29 06:58:25;;;;;;;2.80;2.70;;;20.00;99.90;;;20.55;83.22;101114.56;5042390;28;20045;-74
2023/08/29 07:00:54;;;;;;;2.70;2.60;;;20.20;99.90;;;20.70;83.12;101118.41;5041711;28;20556;-73
2023/08/29 07:03:22;;;;;;;2.85;2.75;;;20.40;99.90;;;21.03;83.22;101126.88;5041293;28;20502;-73
2023/08/29 07:05:53;;;;;;;2.80;2.70;;;20.70;99.90;;;21.35;82.43;101127.22;5042645;28;20045;-77
2023/08/29 07:08:23;;;;;;;2.38;2.28;;;21.00;99.90;;;21.59;81.27;101138.72;5041162;28;20050;-79
2023/08/29 07:10:51;;;;;;;2.40;2.30;;;21.30;99.90;;;21.67;79.75;101111.44;5050844;28;20575;-75
2023/08/29 07:13:19;;;;;;;2.92;2.83;;;21.50;99.90;;;21.92;78.14;101126.41;5040633;28;20068;-81
2023/08/29 07:15:48;;;;;;;2.85;2.75;;;21.70;99.90;;;22.10;77.46;101130.06;5043535;28;20077;-80
2023/08/29 07:18:16;;;;;;;2.60;2.50;;;21.80;99.90;;;22.30;76.32;101132.66;5041157;28;20045;-84
2023/08/29 07:20:48;;;;;;;2.33;2.22;;;22.00;99.90;;;22.52;75.73;101132.50;5042791;28;20398;-81
2023/08/29 07:23:18;;;;;;;2.25;2.15;;;22.20;99.90;;;22.76;74.79;101134.00;5042768;28;20046;-74
2023/08/29 07:25:47;;;;;;;2.40;2.30;;;22.40;99.90;;;22.79;73.38;101131.16;5041380;28;20041;-75
2023/08/29 07:28:16;;;;;;;2.60;2.50;;;22.50;99.90;;;22.81;71.78;101134.66;5043294;28;20502;-75
2023/08/29 07:30:46;;;;;;;2.30;2.20;;;22.50;99.90;;;22.85;71.04;101129.03;5039666;28;20125;-73
2023/08/29 07:33:15;;;;;;;2.50;2.40;;;22.60;99.90;;;22.70;70.96;101104.66;5032780;28;20088;-78
2023/08/29 07:35:46;;;;;;;2.50;2.40;;;22.60;99.90;;;22.98;71.83;101126.56;5032682;28;20083;-78
2023/08/29 07:38:16;;;;;;;2.88;2.78;;;22.70;99.90;;;23.01;70.99;101134.50;5031822;28;20056;-80
2023/08/29 07:40:47;;;;;;;2.05;1.95;;;22.70;99.90;;;22.99;70.10;101125.63;5038268;28;20046;-80
2023/08/29 07:43:16;;;;;;;2.10;2.00;;;22.70;99.90;;;22.93;69.54;101125.94;5041485;28;20041;-80
2023/08/29 07:45:46;;;;;;;2.50;2.40;;;22.60;99.90;;;22.83;69.60;101113.84;5043607;28;20556;-76
2023/08/29 07:48:14;;;;;;;2.63;2.53;;;22.60;99.90;;;22.96;70.13;101125.75;5040010;28;20053;-75
2023/08/29 07:50:42;;;;;;;2.47;2.38;;;22.70;99.90;;;22.96;71.06;101131.16;5031917;28;20064;-74
2023/08/29 07:53:11;;;;;;;3.60;3.45;;;22.60;99.90;;;22.90;71.19;101108.06;5032228;28;20046;-76
2023/08/29 07:55:41;;;;;;;2.55;2.45;;;22.70;99.90;;;23.02;70.58;101128.16;5031298;28;20117;-77
2023/08/29 07:58:10;;;;;;;2.17;2.08;;;22.70;99.90;;;23.07;70.75;101128.81;5036398;28;20041;-76
2023/08/29 08:00:39;;;;;;;6.83;3.33;;;22.80;99.90;;;23.15;69.10;101124.72;5045248;28;20057;-77
2023/08/29 08:03:07;;;;;;;2.33;2.22;;;22.90;99.90;;;23.25;67.94;101125.13;5045905;28;20124;-77
2023/08/29 08:05:35;;;;;;;2.28;2.17;;;22.90;99.90;;;23.38;67.96;101126.28;5044128;28;20132;-76
2023/08/29 08:08:04;;;;;;;2.13;2.03;;;23.10;99.90;;;23.51;66.98;101111.16;5046195;28;20045;-77
2023/08/29 08:10:33;;;;;;;2.30;2.20;;;23.30;99.90;;;23.62;66.73;101122.25;5043607;28;20045;-78
2023/08/29 08:13:03;;;;;;;2.33;2.22;;;23.30;99.90;;;23.58;64.86;101123.38;5035813;28;20491;-76
2023/08/29 08:15:33;;;;;;;2.83;2.70;;;23.30;99.90;;;23.59;64.55;101121.56;5034920;28;20057;-77
2023/08/29 08:18:02;;;;;;;2.80;2.53;;;23.40;99.90;;;23.70;64.82;101122.72;5042201;28;20517;-76
2023/08/29 08:20:30;;;;;;;2.10;2.00;;;23.40;99.90;;;23.80;63.77;101145.56;5035159;28;20142;-77
2023/08/29 08:22:58;;;;;;;2.00;1.90;;;23.50;99.90;;;23.97;63.66;101126.59;5045177;28;20095;-77
2023/08/29 08:25:27;;;;;;;2.25;2.15;;;23.70;99.90;;;24.25;63.85;101122.38;5044642;28;20036;-76
2023/08/29 08:27:56;;;;;;;2.45;2.35;;;23.90;99.90;;;24.48;61.50;101122.81;5045581;28;20045;-77
2023/08/29 08:30:28;;;;;;;1.85;1.80;;;24.20;99.90;;;24.58;60.74;101121.34;5043416;28;20461;-76
2023/08/29 08:32:58;;;;;;;1.90;1.80;;;24.40;99.90;;;24.72;59.36;101121.41;5043200;28;20048;-76
2023/08/29 08:35:26;;;;;;;1.83;1.80;;;24.50;99.90;;;24.95;59.79;101125.47;5045657;28;20525;-76
2023/08/29 08:37:55;;;;;;;1.70;1.70;;;24.70;99.90;;;25.18;59.34;101114.13;5043931;28;20120;-77
2023/08/29 08:40:23;;;;;;;1.70;1.70;;;24.90;99.90;;;25.35;57.89;101115.78;5045581;28;20398;-75
2023/08/29 08:42:51;;;;;;;1.90;1.80;;;25.10;99.90;;;25.52;57.97;101110.22;5044874;28;20045;-77
2023/08/29 08:45:22;;;;;;;1.50;1.50;;;25.30;99.90;;;25.66;56.51;101103.00;5044451;28;20048;-77
2023/08/29 08:47:50;;;;;;;;;;;25.40;99.90;;;25.79;55.39;101111.22;5045882;28;20528;-76
2023/08/29 08:50:20;;;;;;;1.70;1.70;;;25.60;99.90;;;25.96;55.66;101110.16;5043444;28;19947;-75
2023/08/29 08:52:52;;;;;;;1.73;1.73;;;25.70;99.90;;;25.90;54.52;101109.56;5047395;28;20049;-77
2023/08/29 08:55:21;;;;;;;1.55;1.55;;;25.70;99.90;;;26.17;55.42;101109.66;5043575;28;20125;-77
2023/08/29 08:57:50;;;;;;;1.45;1.45;;;25.90;99.90;;;26.45;56.10;101112.31;5045534;28;20123;-77
2023/08/29 09:00:19;;;;;;;1.50;1.50;;;26.20;99.90;;;26.52;52.66;101110.03;5044236;28;20045;-78
2023/08/29 09:02:48;;;;;;;1.50;1.50;;;26.30;99.90;;;26.54;52.31;101111.69;5043990;28;20048;-78
2023/08/29 09:05:16;;;;;;;1.80;1.80;;;26.40;99.90;;;26.47;51.35;101104.94;5044984;28;20048;-77
2023/08/29 09:07:46;;;;;;;1.60;1.60;;;26.30;99.90;;;26.32;51.33;101092.38;5042536;28;20045;-77
2023/08/29 09:10:16;;;;;;;1.40;1.40;;;26.10;99.90;;;26.16;50.95;101096.19;5043955;28;20383;-77
2023/08/29 09:12:49;;;;;;;1.42;1.42;;;26.00;99.90;;;25.98;51.56;101089.22;5034662;28;20288;-77
2023/08/29 09:15:19;;;;;;;1.40;1.40;;;25.80;99.90;;;25.81;52.89;101098.44;5035675;28;20045;-76
2023/08/29 09:17:49;;;;;;;1.55;1.55;;;25.60;99.90;;;25.68;53.29;101092.06;5044644;28;20407;-77
2023/08/29 09:20:17;;;;;;;1.70;1.70;;;25.50;99.90;;;25.63;53.04;101089.63;5044072;28;20049;-77
2023/08/29 09:22:49;;;;;;;1.63;1.63;;;25.30;99.90;;;25.79;54.28;101089.53;5043153;28;20044;-76
2023/08/29 09:25:17;;;;;;;1.55;1.55;;;25.50;99.90;;;25.89;52.49;101091.56;5045122;28;20076;-75
2023/08/29 09:27:47;;;;;;;1.50;1.50;;;25.60;99.90;;;25.93;53.27;101086.81;5042216;28;20541;-76
2023/08/29 09:30:17;;;;;;;1.70;1.70;;;25.60;99.90;;;26.09;51.99;101086.72;5034174;28;20045;-76
2023/08/29 09:32:47;;;;;;;1.80;1.80;;;25.80;99.90;;;26.19;50.78;101091.44;5040850;28;20049;-77
2023/08/29 09:35:19;;;;;;;1.50;1.50;;;25.90;99.90;;;26.35;50.26;101085.88;5039122;28;20053;-77
2023/08/29 09:37:52;;;;;;;3.08;2.95;;;26.00;99.90;;;26.40;49.98;101086.44;5043096;28;20044;-77
2023/08/29 09:40:22;;;;;;;1.63;1.63;;;26.10;99.90;;;26.34;49.26;101081.44;5045291;28;20437;-76
2023/08/29 09:42:55;;;;;;;1.48;1.48;;;26.10;99.90;;;25.94;48.65;101073.16;5041891;28;20072;-75
2023/08/29 09:45:23;;;;;;;1.50;1.50;;;25.80;99.90;;;25.69;50.77;101081.09;5044534;28;20045;-75
2023/08/29 09:47:55;;;;;;;1.73;1.70;;;25.50;99.90;;;25.60;50.79;101081.69;5042923;28;20087;-76
2023/08/29 09:50:23;;;;;;;1.70;1.70;;;25.30;99.90;;;25.52;51.99;101078.59;5043315;28;20506;-77
2023/08/29 09:52:53;;;;;;;1.60;1.60;;;25.20;99.90;;;25.78;53.07;101079.66;5043737;28;20068;-76
2023/08/29 09:55:25;;;;;;;1.98;1.88;;;25.30;99.90;;;25.76;51.26;101078.91;5042624;28;20054;-76
2023/08/29 09:57:55;;;;;;;2.00;1.90;;;25.40;99.90;;;25.67;52.63;101071.31;5045495;28;20037;-77
2023/08/29 10:00:24;;;;;;;3.22;2.50;;;25.30;99.90;;;25.40;52.93;101060.41;5053077;28;20463;-78
2023/08/29 10:02:58;;;;;;;1.75;1.75;;;25.20;99.90;;;25.49;53.06;101067.09;5044189;28;20102;-77
2023/08/29 10:05:34;;;;;;;1.50;1.50;;;25.20;99.90;;;25.54;53.06;101073.06;5042542;28;20061;-76
2023/08/29 10:08:13;;;;;;;1.80;1.80;;;25.20;99.90;;;25.43;51.97;101076.47;5041249;28;20050;-79
2023/08/29 10:10:43;;;;;;;1.70;1.70;;;25.20;99.90;;;25.31;52.49;101071.78;5042051;28;20103;-76
2023/08/29 10:13:12;;;;;;;;;;;25.00;99.90;;;25.28;53.70;101071.09;5043486;28;20056;-77
2023/08/29 10:15:42;;;;;;;1.70;1.70;;;24.90;99.90;;;25.31;52.93;101076.31;5043543;28;19991;-78
2023/08/29 10:18:12;;;;;;;1.73;1.73;;;25.00;99.90;;;25.29;53.17;101068.28;5042221;28;20111;-77
2023/08/29 10:20:43;;;;;;;2.10;2.00;;;24.90;99.90;;;25.34;51.76;101060.75;5044338;28;20133;-77
2023/08/29 10:23:13;;;;;;;1.75;1.75;;;24.90;99.90;;;25.47;52.57;101067.19;5044485;28;20049;-75